Central Sonoma County Latest

37 Stations

15 Minute Data | America/Los_Angeles
as of 9/5/26 6:42 PM PDT
Station Date Time Temp (°F) RH (%) Dew Pt (°F) Wind Spd (mph) Wind Dir (°) Wind Gust (mph) Latest Rain (In) Daily Rain (In) Daily Max Temp (°F) Daily Min Temp (°F)
Windsor-NW (Ranch 8) 9/5/26 1830 74.7   2.9 46   8 52.6   1.5 0.0   0.0 S | 178 0.0   0.0 0.00 0.00 80.8   3.0 50.8   2.5
Windsor-East (Ranch 16) 9/5/26 1830 73.7   3.3 35   11 44.6   4.3 5.5   0.1 SSW | 201 8.6   1.5 0.00 0.00 80.2   3.3 44.1   5.3
Mark West-North (Ranch 14) 9/5/26 1830 72.0   3.2 34   13 41.9   5.8 3.2   0.4 S | 185 8.4   0.5 0.00 0.00 79.9   3.0 45.2   5.5
Windsor-SE (Silk Rd) 9/5/26 1830 73.5   3.6 40   13 47.5   4.3 3.5   0.8 SW | 226 6.6   1.6 0.00 0.00 80.0   4.2 46.5   3.4
Fulton-NW (Ranch 5) 9/5/26 1830 72.9   3.6 36   13 44.4   5.2 3.6   1.0 S | 183 8.6   0.7 0.00 0.00 78.7   3.8 44.8   5.2
Bisordi (Fulton) 9/5/26 1830 72.5   3.4 44   11 49.1   3.0 3.5   0.7 SSW | 209 9.4   1.1 0.00 0.00 79.2   4.0 43.4   5.7
Windsor-South (Laughlin Rd) 9/5/26 1830 72.4   3.5 38   14 45.0   5.2 - - - 0.00 0.00 80.6   4.2 47.7   3.9
Fulton-SE (Barnes Rd) 9/5/26 1830 72.3   3.4 39   10 46.2   3.1 3.6   3.6 S | 187 7.8   7.8 0.00 0.00 78.7   3.1 46.3   6.0
Fulton-SW (Ranch 21) 9/5/26 1830 71.7   3.2 40   10 45.9   3.0 4.5   1.8 SSW | 213 7.9   4.3 0.00 0.00 78.3   3.0 47.5   2.4
NW Santa Rosa (Piner Road) 9/5/26 1830 70.9   3.1 45   10 48.3   2.8 5.4   0.6 SW | 224 10.8   3.1 0.00 0.00 78.2   3.1 46.5   3.1
River Rd South (Denner Ranch) 9/5/26 1830 70.8   2.4 42   8 46.7   2.6 7.2   1.2 SSW | 199 11.2   2.0 - - 78.9   4.0 44.9   4.4
West Santa Rosa (LOV Vineyard) 8/26/26 0900 53.3   5.2 97   6 52.4   3.5 1.0   0.1 SW | 224 3.6   0.0 0.00 0.00 53.6   5.2 50.2   1.8
Guerneville Rd (Prokopakis) 9/5/26 1830 73.1   3.5 38   9 46.4   2.5 - - - 0.00 0.00 84.7   4.4 45.0   5.2
SunnyView Vineyard (SCWC) 9/5/26 1830 71.2   3.5 38   11 44.2   3.6 4.4   1.5 SW | 222 8.6   3.2 0.00 0.00 78.6   3.0 45.0   3.6
Guerneville Rd West (Balletto) 9/5/26 1830 71.7   3.1 45   11 49.2   3.1 5.3   0.1 WSW | 249 10.4   0.8 0.00 0.00 77.9   2.8 45.8   4.2
Sanchietti Ranch 9/5/26 1830 72.6   3.6 47   12 51.4   2.9 3.3   1.8 W | 262 9.6   1.3 0.00 0.00 78.8   3.0 46.8   2.5
Occidental Rd (Sebastopol) 9/5/26 1830 72.0   4.1 54   15 54.4   3.1 3.3   1.9 WSW | 243 8.1   3.5 0.00 0.00 79.1   2.7 45.8   2.9
Harper's Rest (Windsor-West) 9/5/26 1830 74.5   3.8 41   9 49.2   2.1 2.3   0.6 SSW | 200 6.9   1.2 0.00 0.00 80.8   2.7 46.8   2.4
Lower Westside Rd (Ranch 12) 9/5/26 1830 73.1   2.9 42   10 48.9   2.8 2.8   1.1 SSW | 209 5.7   3.9 0.00 0.00 79.2   3.6 45.1   4.7
Guerneville (Laughlin Rd) 9/5/26 1830 64.7   1.2 72   6 55.3   1.2 2.1   0.2 S | 190 6.7   2.3 0.00 0.00 78.5   4.5 48.9   2.7
Korbel (Winery) 9/5/26 1830 70.2   1.5 52   4 51.9   0.6 0.0   1.3 N | 0 0.0   8.2 0.00 0.00 78.4   4.1 50.3   2.6
Forestville (Shone Farms) 9/5/26 1830 72.3   3.8 43   14 48.5   4.1 3.6   0.7 SW | 225 8.2   2.0 0.00 0.00 79.6   3.9 46.9   1.2
Forestville-NE (Ranch 30) 9/5/26 1830 71.2   3.9 48   15 50.6   3.9 3.8   2.1 SW | 235 10.1   0.2 0.00 0.01 79.5   3.1 48.5   0.4
Foggy Bend (Ranch 41) 9/5/26 1830 72.2   3.2 50   11 52.6   2.6 2.7   1.8 WSW | 245 6.7   2.9 0.00 0.00 78.6   3.7 48.5   2.6
Last Stop 9/5/26 1830 70.6   2.8 46   11 48.7   3.3 2.4   0.0 WSW | 245 5.9   4.0 0.00 0.00 80.5   3.3 44.3   3.5
Green Valley Vineyard 9/5/26 1830 68.2   2.9 48   10 47.5   2.2 4.7   2.9 WSW | 251 11.8   4.8 0.00 0.00 77.9   4.5 46.2   2.8
Park Royal 9/5/26 1830 72.4   3.7 36   11 43.9   3.8 - - - 0.00 0.00 78.6   4.0 47.3   2.0
Merino 9/5/26 1830 72.6   3.4 42   11 48.6   3.3 2.4   0.1 WSW | 255 6.9   0.7 0.00 0.00 80.5   2.9 43.9   4.7
Green Valley (Sanchietti) 9/5/26 1830 70.2   2.9 - - - - - - - 79.9   3.3 41.4   4.8
Keefer Ranch (Green Valley) 9/5/26 1830 68.5   2.2 51   4 49.9   0.1 - - - 0.00 0.00 77.7   3.8 43.5   3.7
Graton-West (Dutton Ranch) 9/5/26 1830 69.3   3.0 46   14 47.4   4.6 2.5   1.4 S | 179 5.1   7.1 0.00 0.00 78.9   4.2 43.9   4.2
Graton-South (Mill Station Rd) 9/5/26 1830 69.6   2.4 45   10 47.7   3.0 2.0   0.2 W | 272 5.7   0.4 0.00 0.00 74.9   2.1 42.0   4.9
Occidental (Horseshoe Bend) 9/5/26 1830 64.5   2.5 64   6 52.0   0.2 - - - 0.00 0.00 73.3   2.4 51.2   0.2
Sexton Valley (Jacqueline's Blk) 9/5/26 1830 70.2   3.3 50   10 51.0   2.0 3.2   1.2 W | 273 8.2   3.2 0.00 0.01 76.0   2.0 42.6   5.0
Sebastopol Hills (Burnside Rd) 9/5/26 1830 68.0   2.9 51   13 49.4   3.2 3.8   0.7 WNW | 287 11.2   0.1 0.00 0.00 73.0   2.5 49.8   1.1
Pleasant Hill 9/5/26 1830 69.7   3.6 51   8 51.0   0.6 2.9   1.3 SW | 236 7.3   3.7 0.00 0.00 78.0   3.5 46.3   2.2
Seaview/Fort Ross (Hirsch) 9/5/26 1830 58.9   1.5 70   13 49.3   3.0 3.4   0.4 NNW | 330 7.3   0.2 0.00 0.00 67.0   1.0 50.6   1.5
Max     74.7 72 55.3 7.2 - 11.8 0.00 0.01 84.7 51.2
Avg     70.8 46 48.6 3.4 - 7.7 0.00 - - -
Min     58.9 34 41.9 0.0 - 0.0 0.00 0.00 67.0 41.4